Mowrystown, Ohio
Current Conditions -  °F | °C
As of 5:54 PM on Thursday 18 Dec 2014 (Local Time) from KILN Reporting Station
Overcast Overcast  
Wind Chill: 27°   Ceiling: 7000
Heat Index: 27°   Visibility: 10mi
Dew Point: 19°   Wind: 0mph
Humidity: 72%   Direction: NA
Pressure: 30.19"   Gusts: NA
Location:  39.04°N, 83.75°W
Report Text: KILN 182254Z AUTO 00000KT 10SM SCT020 OVC070 M03/M07 A3019 RMK AO2 SLP256 T10281072
Loading
Personal Weather Stations






























Interactive Weather Map New forecast layout! Learn more

10-Day Weather Forecast

Advertisements
Track Severe Weather on mobile